Time;durP1;ratioP1;P1;durP2;ratioP2;P2;SDS_P1;SDS_P2;PMS_P1;PMS_P2;Temp;Humidity;BMP_temperature;BMP_pressure;BME280_temperature;BME280_humidity;BME280_pressure;Samples;Min_cycle;Max_cycle;Signal;HPM_P1;HPM_P2
2023/03/23 00:01:59;;;;;;;14.88;12.75;;;11.20;99.90;;;;;;7367724;19;20040;-71
2023/03/23 00:04:29;;;;;;;16.02;13.18;;;11.30;99.90;;;;;;7380937;19;20014;-71
2023/03/23 00:06:55;;;;;;;14.73;13.10;;;11.20;99.90;;;;;;7371879;19;20031;-71
2023/03/23 00:09:24;;;;;;;14.27;12.75;;;11.30;99.90;;;;;;7373697;19;20512;-70
2023/03/23 00:11:52;;;;;;;16.80;11.93;;;11.30;99.90;;;;;;7369664;19;20365;-70
2023/03/23 00:14:22;;;;;;;13.98;12.57;;;11.30;99.90;;;;;;7367268;19;20363;-70
2023/03/23 00:16:49;;;;;;;16.48;11.77;;;11.20;99.90;;;;;;7367217;19;20496;-70
2023/03/23 00:19:19;;;;;;;14.52;11.13;;;11.30;99.90;;;;;;7360635;19;20027;-70
2023/03/23 00:21:45;;;;;;;15.27;12.07;;;11.30;99.90;;;;;;7363514;19;20504;-70
2023/03/23 00:24:13;;;;;;;13.55;11.02;;;11.30;99.90;;;;;;7372761;19;20505;-70
2023/03/23 00:26:40;;;;;;;17.08;10.75;;;11.30;99.90;;;;;;7375465;19;20389;-71
2023/03/23 00:29:22;;;;;;;12.45;9.38;;;11.40;99.90;;;;;;7375636;19;20486;-70
2023/03/23 00:31:53;;;;;;;12.70;9.82;;;11.40;99.90;;;;;;7371973;19;20018;-70
2023/03/23 00:34:24;;;;;;;12.35;10.60;;;11.40;99.90;;;;;;7373680;19;20021;-70
2023/03/23 00:36:57;;;;;;;13.73;9.87;;;11.40;99.90;;;;;;7379381;19;20018;-70
2023/03/23 00:39:26;;;;;;;12.40;10.85;;;11.30;99.90;;;;;;7376636;19;20026;-69
2023/03/23 00:42:00;;;;;;;13.60;10.23;;;11.30;99.90;;;;;;7375649;19;20006;-70
2023/03/23 00:44:28;;;;;;;12.57;9.40;;;11.30;99.90;;;;;;7376156;19;20427;-69
2023/03/23 00:46:56;;;;;;;10.65;8.23;;;11.30;99.90;;;;;;7371211;19;20031;-69
2023/03/23 00:49:25;;;;;;;13.15;9.25;;;11.40;99.90;;;;;;7369184;19;20022;-69
2023/03/23 00:51:53;;;;;;;10.85;9.02;;;11.40;99.90;;;;;;7363528;19;20482;-70
2023/03/23 00:54:20;;;;;;;11.82;9.25;;;11.40;99.90;;;;;;7373890;19;20015;-69
2023/03/23 00:56:50;;;;;;;12.05;8.43;;;11.40;99.90;;;;;;7375319;19;20040;-69
2023/03/23 00:59:16;;;;;;;11.35;8.48;;;11.40;99.90;;;;;;7373059;19;20014;-69
2023/03/23 01:01:47;;;;;;;11.95;7.72;;;11.40;99.90;;;;;;7371636;19;20015;-69
2023/03/23 01:04:14;;;;;;;10.07;7.55;;;11.40;99.90;;;;;;7374171;19;20018;-70
2023/03/23 01:06:43;;;;;;;11.38;7.25;;;11.40;99.90;;;;;;7375635;19;20383;-69
2023/03/23 01:09:16;;;;;;;8.88;7.03;;;11.30;99.90;;;;;;7371817;19;20035;-69
2023/03/23 01:11:47;;;;;;;8.20;5.90;;;11.40;99.90;;;;;;7373748;19;20019;-69
2023/03/23 01:14:15;;;;;;;8.48;6.35;;;11.40;99.90;;;;;;7373562;19;20461;-69
2023/03/23 01:16:41;;;;;;;7.88;5.72;;;11.40;99.90;;;;;;7373757;19;20111;-69
2023/03/23 01:19:07;;;;;;;8.75;5.32;;;11.50;99.90;;;;;;7375114;19;20488;-70
2023/03/23 01:21:34;;;;;;;9.82;5.85;;;11.50;99.90;;;;;;7374438;19;20033;-69
2023/03/23 01:24:00;;;;;;;7.50;5.63;;;11.50;99.90;;;;;;7372595;19;20046;-69
2023/03/23 01:26:28;;;;;;;7.85;5.32;;;11.50;99.90;;;;;;7375046;19;20018;-69
2023/03/23 01:28:58;;;;;;;9.30;5.10;;;11.50;99.90;;;;;;7371084;19;20866;-69
2023/03/23 01:31:26;;;;;;;7.72;4.55;;;11.60;99.90;;;;;;7370386;19;20051;-78
2023/03/23 01:33:54;;;;;;;6.15;4.40;;;11.60;99.90;;;;;;7363434;19;20022;-77
2023/03/23 01:36:32;;;;;;;10.50;5.20;;;11.60;99.90;;;;;;7365235;19;20038;-77
2023/03/23 01:39:03;;;;;;;7.97;4.88;;;11.60;99.90;;;;;;7369346;19;21143;-77
2023/03/23 01:41:31;;;;;;;7.68;4.38;;;11.50;99.90;;;;;;7370426;19;20014;-77
2023/03/23 01:44:16;;;;;;;7.78;4.50;;;11.60;99.90;;;;;;7371042;19;20038;-77
2023/03/23 01:47:03;;;;;;;7.13;5.05;;;11.70;99.90;;;;;;7367549;19;20029;-77
2023/03/23 01:49:36;;;;;;;7.57;5.07;;;11.60;99.90;;;;;;7367900;19;20022;-78
2023/03/23 01:52:07;;;;;;;8.45;4.55;;;11.60;99.90;;;;;;7370266;19;20025;-77
2023/03/23 01:54:36;;;;;;;7.93;4.45;;;11.50;99.90;;;;;;7367754;19;20026;-77
2023/03/23 01:57:13;;;;;;;9.25;5.60;;;11.60;99.90;;;;;;7369378;19;20082;-77
2023/03/23 01:59:44;;;;;;;9.90;5.60;;;11.50;99.90;;;;;;7372798;19;20637;-78
2023/03/23 02:02:26;;;;;;;5.93;4.60;;;11.50;99.90;;;;;;7372093;19;20814;-78
2023/03/23 02:04:59;;;;;;;10.23;5.72;;;11.50;99.90;;;;;;7370928;19;20064;-77
2023/03/23 02:07:27;;;;;;;8.82;5.43;;;11.40;99.90;;;;;;7364713;19;20471;-77
2023/03/23 02:09:57;;;;;;;10.75;5.53;;;11.40;99.90;;;;;;7369048;19;20635;-77
2023/03/23 02:12:23;;;;;;;6.88;4.50;;;11.40;99.90;;;;;;7365041;19;20374;-78
2023/03/23 02:14:52;;;;;;;8.45;5.20;;;11.30;99.90;;;;;;7366065;19;20406;-77
2023/03/23 02:17:29;;;;;;;9.90;5.50;;;11.40;99.90;;;;;;7370282;19;20095;-77
2023/03/23 02:20:14;;;;;;;10.23;4.95;;;11.40;99.90;;;;;;7369013;19;20031;-77
2023/03/23 02:22:43;;;;;;;9.63;5.68;;;11.40;99.90;;;;;;7369858;19;20018;-77
2023/03/23 02:25:23;;;;;;;9.10;4.82;;;11.50;99.90;;;;;;7367191;19;20034;-77
2023/03/23 02:28:02;;;;;;;7.75;4.53;;;11.40;99.90;;;;;;7366115;19;20018;-76
2023/03/23 02:30:47;;;;;;;7.50;4.63;;;11.40;99.90;;;;;;7367340;19;20394;-77
2023/03/23 02:33:38;;;;;;;8.57;4.80;;;11.50;99.90;;;;;;7368019;19;20018;-76
2023/03/23 02:36:19;;;;;;;8.05;4.50;;;11.50;99.90;;;;;;7370483;19;20037;-77
2023/03/23 02:38:58;;;;;;;7.00;4.28;;;11.40;99.90;;;;;;7362156;19;20316;-78
2023/03/23 02:41:30;;;;;;;6.35;4.60;;;11.50;99.90;;;;;;7366999;19;20015;-77
2023/03/23 02:43:57;;;;;;;6.22;4.07;;;11.40;99.90;;;;;;7369770;19;20527;-76
2023/03/23 02:46:28;;;;;;;10.13;4.60;;;11.40;99.90;;;;;;7358054;19;20046;-77
2023/03/23 02:48:57;;;;;;;8.82;4.82;;;11.30;99.90;;;;;;7353741;19;20287;-76
2023/03/23 02:51:25;;;;;;;8.45;4.65;;;11.30;99.90;;;;;;7354978;19;20045;-77
2023/03/23 02:53:54;;;;;;;8.75;4.45;;;11.30;99.90;;;;;;7365988;19;20022;-76
2023/03/23 02:56:23;;;;;;;7.82;4.25;;;11.20;99.90;;;;;;7367254;19;20026;-77
2023/03/23 02:58:49;;;;;;;6.85;4.25;;;11.20;99.90;;;;;;7366441;19;20021;-77
2023/03/23 03:01:36;;;;;;;6.88;4.28;;;11.20;99.90;;;;;;7370909;19;20010;-69
2023/03/23 03:04:14;;;;;;;7.28;4.90;;;11.20;99.90;;;;;;7370577;19;20038;-77
2023/03/23 03:07:04;;;;;;;9.85;5.43;;;11.20;99.90;;;;;;7366085;19;20439;-74
2023/03/23 03:09:50;;;;;;;9.93;4.65;;;11.20;99.90;;;;;;7368032;19;20513;-69
2023/03/23 03:12:35;;;;;;;9.98;5.20;;;11.20;99.90;;;;;;7368081;19;20367;-68
2023/03/23 03:15:30;;;;;;;9.57;4.80;;;11.20;99.90;;;;;;7368954;19;20048;-69
2023/03/23 03:18:07;;;;;;;9.38;5.07;;;11.20;99.90;;;;;;7368350;19;20022;-68
2023/03/23 03:20:37;;;;;;;7.53;5.22;;;11.20;99.90;;;;;;7370440;19;20493;-68
2023/03/23 03:23:07;;;;;;;7.47;5.32;;;11.20;99.90;;;;;;7353046;19;20631;-68
2023/03/23 03:25:34;;;;;;;10.32;6.25;;;11.20;99.90;;;;;;7354478;19;20362;-68
2023/03/23 03:28:03;;;;;;;10.00;5.38;;;11.20;99.90;;;;;;7365561;19;20143;-69
2023/03/23 03:30:44;;;;;;;7.60;5.38;;;11.20;99.90;;;;;;7367734;19;20022;-68
2023/03/23 03:33:12;;;;;;;8.68;5.35;;;11.30;99.90;;;;;;7369568;19;20439;-67
2023/03/23 03:35:41;;;;;;;7.55;4.82;;;11.30;99.90;;;;;;7368743;19;20088;-68
2023/03/23 03:38:10;;;;;;;6.07;5.32;;;11.30;99.90;;;;;;7370653;19;20380;-68
2023/03/23 03:40:37;;;;;;;7.70;5.22;;;11.20;99.90;;;;;;7371653;19;20085;-68
2023/03/23 03:43:04;;;;;;;8.70;5.40;;;11.30;99.90;;;;;;7370936;19;20015;-68
2023/03/23 03:45:30;;;;;;;9.65;5.47;;;11.30;99.90;;;;;;7364213;19;20019;-68
2023/03/23 03:48:00;;;;;;;6.85;5.57;;;11.30;99.90;;;;;;7359694;19;20017;-68
2023/03/23 03:50:26;;;;;;;6.28;5.13;;;11.30;99.90;;;;;;7365438;19;20465;-68
2023/03/23 03:52:53;;;;;;;7.75;5.93;;;11.30;99.90;;;;;;7364158;19;20015;-68
2023/03/23 03:55:19;;;;;;;6.65;5.68;;;11.30;99.90;;;;;;7361291;19;20372;-68
2023/03/23 03:57:48;;;;;;;7.10;5.20;;;11.40;99.90;;;;;;7365485;19;20037;-68
2023/03/23 04:00:34;;;;;;;10.93;5.47;;;11.40;99.90;;;;;;7376192;19;20022;-68
2023/03/23 04:03:00;;;;;;;7.75;5.70;;;11.40;99.90;;;;;;7374316;19;20019;-68
2023/03/23 04:05:44;;;;;;;7.53;5.50;;;11.50;99.90;;;;;;7372161;19;20483;-77
2023/03/23 04:08:11;;;;;;;8.63;6.03;;;11.40;99.90;;;;;;7376017;19;20014;-77
2023/03/23 04:10:38;;;;;;;7.88;5.90;;;11.40;99.90;;;;;;7375300;19;20026;-76
2023/03/23 04:13:04;;;;;;;7.82;5.95;;;11.40;99.90;;;;;;7376553;19;20038;-78
2023/03/23 04:15:46;;;;;;;10.27;5.95;;;11.50;99.90;;;;;;7372135;19;20308;-77
2023/03/23 04:18:14;;;;;;;9.75;6.35;;;11.50;99.90;;;;;;7374733;19;20019;-77
2023/03/23 04:20:44;;;;;;;8.38;6.05;;;11.60;99.90;;;;;;7371837;19;20023;-77
2023/03/23 04:23:11;;;;;;;8.85;6.70;;;11.50;99.90;;;;;;7375327;19;20423;-77
2023/03/23 04:25:39;;;;;;;10.98;6.47;;;11.50;99.90;;;;;;7369694;19;20019;-76
2023/03/23 04:28:05;;;;;;;11.07;6.43;;;11.60;99.90;;;;;;7371438;19;20029;-77
2023/03/23 04:30:42;;;;;;;8.25;5.68;;;11.50;99.90;;;;;;7367021;19;20407;-76
2023/03/23 04:33:15;;;;;;;9.30;6.53;;;11.60;99.90;;;;;;7366392;19;20022;-76
2023/03/23 04:35:47;;;;;;;8.90;6.78;;;11.60;99.90;;;;;;7372467;19;20258;-76
2023/03/23 04:38:20;;;;;;;10.27;6.65;;;11.60;99.90;;;;;;7373724;19;20018;-76
2023/03/23 04:40:53;;;;;;;7.55;5.72;;;11.50;99.90;;;;;;7371113;19;20015;-77
2023/03/23 04:43:45;;;;;;;11.32;6.57;;;11.50;99.90;;;;;;7372420;19;20021;-76
2023/03/23 04:46:28;;;;;;;8.05;5.75;;;11.50;99.90;;;;;;7369038;19;20502;-77
2023/03/23 04:49:00;;;;;;;12.02;6.55;;;11.50;99.90;;;;;;7371317;19;20014;-75
2023/03/23 04:51:31;;;;;;;10.43;6.22;;;11.60;99.90;;;;;;7368537;19;20505;-78
2023/03/23 04:54:08;;;;;;;8.52;6.32;;;11.60;99.90;;;;;;7372595;19;20501;-76
2023/03/23 04:56:36;;;;;;;10.65;6.45;;;11.50;99.90;;;;;;7367845;19;20145;-75
2023/03/23 04:59:08;;;;;;;12.77;6.88;;;11.30;99.90;;;;;;7373498;19;20024;-75
2023/03/23 05:01:44;;;;;;;9.50;6.13;;;11.30;99.90;;;;;;7368699;19;20018;-75
2023/03/23 05:04:16;;;;;;;11.93;6.80;;;11.20;99.90;;;;;;7369841;19;20022;-72
2023/03/23 05:06:47;;;;;;;14.90;7.50;;;11.10;99.90;;;;;;7364922;19;20019;-72
2023/03/23 05:09:20;;;;;;;11.32;6.78;;;11.00;99.90;;;;;;7372296;19;20504;-78
2023/03/23 05:11:48;;;;;;;9.70;7.13;;;10.80;99.90;;;;;;7375936;19;20019;-80
2023/03/23 05:14:15;;;;;;;10.82;6.43;;;10.70;99.90;;;;;;7377416;19;20517;-78
2023/03/23 05:16:48;;;;;;;6.82;4.28;;;10.60;99.90;;;;;;7373516;19;20030;-74
2023/03/23 05:19:15;;;;;;;8.02;4.45;;;10.50;99.90;;;;;;7370793;19;20020;-72
2023/03/23 05:21:41;;;;;;;11.40;4.47;;;10.60;99.90;;;;;;7372208;19;20471;-72
2023/03/23 05:24:08;;;;;;;11.50;4.20;;;10.50;99.90;;;;;;7371223;19;20097;-71
2023/03/23 05:26:34;;;;;;;6.30;3.40;;;10.50;99.90;;;;;;7365131;19;20022;-72
2023/03/23 05:29:11;;;;;;;9.10;3.67;;;10.50;99.90;;;;;;7367120;19;20022;-73
2023/03/23 05:31:48;;;;;;;11.52;3.83;;;10.40;99.90;;;;;;7368323;19;20014;-74
2023/03/23 05:34:16;;;;;;;9.45;3.88;;;10.40;99.90;;;;;;7365328;19;20468;-75
2023/03/23 05:36:57;;;;;;;8.40;3.63;;;10.30;99.90;;;;;;7370157;19;20376;-74
2023/03/23 05:39:46;;;;;;;17.05;3.50;;;10.40;99.90;;;;;;7369146;19;20018;-74
2023/03/23 05:42:34;;;;;;;16.05;4.57;;;10.50;99.90;;;;;;7373990;19;21638;-74
2023/03/23 05:45:10;;;;;;;7.13;3.03;;;10.50;99.90;;;;;;7368936;19;20046;-73
2023/03/23 05:47:41;;;;;;;11.38;3.38;;;10.50;99.90;;;;;;7372001;19;20014;-74
2023/03/23 05:50:12;;;;;;;8.65;3.50;;;10.50;99.90;;;;;;7367007;19;20026;-74
2023/03/23 05:52:40;;;;;;;10.23;3.33;;;10.50;99.90;;;;;;7371100;19;20542;-74
2023/03/23 05:55:11;;;;;;;14.68;3.78;;;10.50;99.90;;;;;;7371885;19;20018;-73
2023/03/23 05:57:39;;;;;;;14.25;3.97;;;10.50;99.90;;;;;;7372881;19;20014;-73
2023/03/23 06:00:20;;;;;;;9.57;3.00;;;10.50;99.90;;;;;;7368759;19;20037;-70
2023/03/23 06:02:56;;;;;;;13.80;3.35;;;10.40;99.90;;;;;;7384828;19;20029;-70
2023/03/23 06:05:30;;;;;;;9.95;2.90;;;10.40;99.90;;;;;;7385746;19;20049;-70
2023/03/23 06:07:58;;;;;;;10.68;2.75;;;10.30;99.90;;;;;;7386218;19;20103;-69
2023/03/23 06:10:26;;;;;;;13.05;3.22;;;10.30;99.90;;;;;;7385512;19;20363;-69
2023/03/23 06:12:59;;;;;;;7.07;2.97;;;10.30;99.90;;;;;;7379065;19;20082;-69
2023/03/23 06:15:47;;;;;;;8.82;2.85;;;10.30;99.90;;;;;;7383962;19;20498;-71
2023/03/23 06:18:33;;;;;;;11.77;2.67;;;10.40;99.90;;;;;;7385327;19;20023;-72
2023/03/23 06:21:21;;;;;;;7.63;2.83;;;10.40;99.90;;;;;;7378255;19;20018;-71
2023/03/23 06:23:53;;;;;;;12.55;3.35;;;10.40;99.90;;;;;;7381116;19;20039;-71
2023/03/23 06:26:25;;;;;;;9.95;2.97;;;10.40;99.90;;;;;;7377229;19;21053;-69
2023/03/23 06:28:57;;;;;;;7.38;2.47;;;10.30;99.90;;;;;;7372678;19;20029;-69
2023/03/23 06:31:26;;;;;;;13.25;3.92;;;10.30;99.90;;;;;;7365199;19;20015;-68
2023/03/23 06:33:52;;;;;;;7.72;2.95;;;10.30;99.90;;;;;;7369538;19;20018;-68
2023/03/23 06:36:26;;;;;;;10.27;3.08;;;10.30;99.90;;;;;;7372876;19;20529;-75
2023/03/23 06:39:13;;;;;;;10.38;3.10;;;10.30;99.90;;;;;;7370666;19;20037;-76
2023/03/23 06:42:08;;;;;;;14.40;4.33;;;10.30;99.90;;;;;;7365671;19;20035;-73
2023/03/23 06:44:36;;;;;;;;;;;10.40;99.90;;;;;;7369619;19;20022;-74
2023/03/23 06:47:03;;;;;;;11.23;3.38;;;10.30;99.90;;;;;;7372222;19;19919;-73
2023/03/23 06:49:34;;;;;;;16.33;4.78;;;10.40;99.90;;;;;;7370288;19;20014;-73
2023/03/23 06:52:20;;;;;;;11.15;4.07;;;10.50;99.90;;;;;;7369623;19;20017;-75
2023/03/23 06:54:47;;;;;;;13.13;3.78;;;10.50;99.90;;;;;;7372142;19;20492;-75
2023/03/23 06:57:13;;;;;;;13.45;4.55;;;10.50;99.90;;;;;;7372469;19;20486;-75
2023/03/23 06:59:43;;;;;;;15.10;4.20;;;10.50;99.90;;;;;;7373161;19;20019;-76
2023/03/23 07:02:11;;;;;;;18.55;4.32;;;10.60;99.90;;;;;;7367822;19;20631;-75
2023/03/23 07:04:38;;;;;;;16.38;4.20;;;10.60;99.90;;;;;;7372126;19;20022;-76
2023/03/23 07:07:14;;;;;;;16.92;4.45;;;10.60;99.90;;;;;;7366560;19;20015;-76
2023/03/23 07:09:48;;;;;;;17.42;4.43;;;10.70;99.90;;;;;;7371920;19;20018;-75
2023/03/23 07:12:18;;;;;;;16.35;4.28;;;10.70;99.90;;;;;;7372716;19;20061;-75
2023/03/23 07:14:47;;;;;;;16.02;4.22;;;10.70;99.90;;;;;;7372085;19;20022;-74
2023/03/23 07:17:14;;;;;;;21.50;4.72;;;10.70;99.90;;;;;;7374561;19;20493;-75
2023/03/23 07:19:51;;;;;;;13.40;3.85;;;10.80;99.90;;;;;;7369641;19;20028;-76
2023/03/23 07:22:18;;;;;;;18.65;4.85;;;10.80;99.90;;;;;;7367163;19;20624;-76
2023/03/23 07:24:50;;;;;;;14.77;5.35;;;10.90;99.90;;;;;;7365205;19;20759;-76
2023/03/23 07:27:23;;;;;;;18.27;4.57;;;10.90;99.90;;;;;;7370080;19;20022;-76
2023/03/23 07:29:52;;;;;;;15.60;5.07;;;11.00;99.90;;;;;;7368221;19;20026;-76
2023/03/23 07:32:24;;;;;;;22.27;5.85;;;11.00;99.90;;;;;;7371892;19;20561;-76
2023/03/23 07:34:50;;;;;;;17.45;4.88;;;11.10;99.90;;;;;;7375524;19;20497;-76
2023/03/23 07:37:28;;;;;;;16.60;4.63;;;11.20;99.90;;;;;;7378971;19;20020;-76
2023/03/23 07:39:54;;;;;;;13.50;4.10;;;11.30;99.90;;;;;;7382002;19;20030;-76
2023/03/23 07:42:21;;;;;;;17.17;5.00;;;11.40;99.90;;;;;;7378142;19;20026;-76
2023/03/23 07:44:54;;;;;;;13.00;3.47;;;11.50;99.90;;;;;;7378481;19;20082;-76
2023/03/23 07:47:22;;;;;;;41.05;26.50;;;11.60;99.90;;;;;;7376717;19;20030;-73
2023/03/23 07:49:49;;;;;;;16.05;5.70;;;11.80;99.90;;;;;;7376079;19;20015;-74
2023/03/23 07:52:26;;;;;;;18.70;4.28;;;11.70;99.90;;;;;;7378908;19;20060;-76
2023/03/23 07:54:52;;;;;;;19.55;4.82;;;11.70;99.90;;;;;;7374829;19;20058;-74
2023/03/23 07:57:39;;;;;;;18.00;4.15;;;11.60;99.90;;;;;;7375290;19;20015;-71
2023/03/23 08:00:11;;;;;;;15.43;4.28;;;11.60;99.90;;;;;;7378278;19;20030;-75
2023/03/23 08:02:42;;;;;;;17.17;4.35;;;11.60;99.90;;;;;;7378065;19;20094;-75
2023/03/23 08:05:32;;;;;;;15.95;4.07;;;11.60;99.90;;;;;;7374123;19;20014;-75
2023/03/23 08:08:18;;;;;;;19.55;4.30;;;11.70;99.90;;;;;;7381114;19;20372;-75
2023/03/23 08:11:18;;;;;;;13.98;4.05;;;11.80;99.90;;;;;;7376312;19;20026;-75
2023/03/23 08:14:26;;;;;;;16.23;4.45;;;11.80;99.90;;;;;;7373070;19;20022;-74
2023/03/23 08:17:06;;;;;;;15.77;5.40;;;11.80;99.90;;;;;;7373724;19;20041;-72
2023/03/23 08:19:43;;;;;;;14.90;4.57;;;11.80;99.90;;;;;;7377236;19;20802;-74
2023/03/23 08:22:36;;;;;;;14.57;4.03;;;11.90;99.90;;;;;;7378756;19;20690;-73
2023/03/23 08:25:14;;;;;;;19.60;4.82;;;12.00;99.90;;;;;;7371843;19;20437;-73
2023/03/23 08:28:01;;;;;;;16.75;4.53;;;12.10;99.90;;;;;;7375787;19;20018;-73
2023/03/23 08:30:57;;;;;;;20.80;4.22;;;12.10;99.90;;;;;;7376951;19;20133;-71
2023/03/23 08:33:51;;;;;;;16.55;4.32;;;12.10;99.90;;;;;;7378812;19;20022;-75
2023/03/23 08:36:38;;;;;;;17.17;4.40;;;12.10;99.90;;;;;;7381929;19;20388;-73
2023/03/23 08:39:17;;;;;;;21.70;4.90;;;12.10;99.90;;;;;;7379438;19;20038;-73
2023/03/23 08:42:06;;;;;;;14.70;4.20;;;12.10;99.90;;;;;;7373524;19;20022;-73
2023/03/23 08:44:53;;;;;;;16.85;4.40;;;12.10;99.90;;;;;;7373577;19;20029;-73
2023/03/23 08:47:39;;;;;;;21.40;5.45;;;12.10;99.90;;;;;;7378954;19;20014;-75
2023/03/23 08:50:14;;;;;;;17.95;5.30;;;12.20;99.90;;;;;;7375934;19;20021;-74
2023/03/23 08:53:18;;;;;;;17.55;5.22;;;12.40;99.90;;;;;;7372513;19;20682;-72
2023/03/23 08:55:49;;;;;;;23.83;5.30;;;12.60;99.90;;;;;;7380387;19;20544;-76
2023/03/23 08:58:54;;;;;;;17.25;4.35;;;12.80;99.90;;;;;;7381027;19;20615;-75
2023/03/23 09:01:35;;;;;;;16.42;4.72;;;12.70;99.90;;;;;;7379317;19;20019;-73
2023/03/23 09:04:42;;;;;;;17.52;4.72;;;12.70;99.90;;;;;;7372510;19;20486;-76
2023/03/23 09:07:23;;;;;;;18.92;5.30;;;12.70;99.90;;;;;;7380721;19;20023;-76
2023/03/23 09:09:50;;;;;;;19.83;5.43;;;12.70;99.90;;;;;;7381125;19;20024;-76
2023/03/23 09:12:16;;;;;;;19.10;5.32;;;12.70;99.90;;;;;;7382877;19;20025;-76
2023/03/23 09:14:42;;;;;;;17.00;5.22;;;12.70;99.90;;;;;;7384714;19;20026;-76
2023/03/23 09:17:10;;;;;;;18.85;4.75;;;12.60;99.90;;;;;;7374425;19;20481;-73
2023/03/23 09:19:38;;;;;;;18.38;4.85;;;12.40;99.90;;;;;;7370380;19;20022;-74
2023/03/23 09:22:05;;;;;;;21.45;5.00;;;12.40;99.90;;;;;;7371034;19;20513;-72
2023/03/23 09:24:31;;;;;;;15.68;4.60;;;12.60;99.90;;;;;;7373063;19;20652;-74
2023/03/23 09:26:58;;;;;;;16.77;5.05;;;13.20;99.90;;;;;;7373738;19;20021;-73
2023/03/23 09:29:26;;;;;;;18.27;5.70;;;13.40;99.90;;;;;;7373191;19;20041;-74
2023/03/23 09:31:55;;;;;;;19.48;5.20;;;13.30;99.90;;;;;;7372521;19;20018;-75
2023/03/23 09:34:23;;;;;;;20.75;5.10;;;13.20;99.90;;;;;;7379034;19;20015;-74
2023/03/23 09:36:49;;;;;;;19.80;5.13;;;12.90;99.90;;;;;;7375726;19;20010;-73
2023/03/23 09:39:18;;;;;;;18.33;5.18;;;12.70;99.90;;;;;;7373064;19;20304;-73
2023/03/23 09:41:56;;;;;;;21.98;4.65;;;12.60;99.90;;;;;;7372971;19;20807;-73
2023/03/23 09:44:51;;;;;;;17.55;4.38;;;12.50;99.90;;;;;;7372997;19;20079;-73
2023/03/23 09:47:32;;;;;;;19.30;4.70;;;12.40;99.90;;;;;;7376288;19;20026;-76
2023/03/23 09:50:09;;;;;;;18.73;4.38;;;12.40;99.90;;;;;;7371834;19;20488;-73
2023/03/23 09:52:51;;;;;;;20.38;5.07;;;12.40;99.90;;;;;;7371606;19;20022;-74
2023/03/23 09:55:20;;;;;;;17.27;4.75;;;12.70;99.90;;;;;;7370943;19;20081;-75
2023/03/23 09:58:02;;;;;;;13.65;4.00;;;12.50;99.90;;;;;;7373358;19;20022;-74
2023/03/23 10:00:58;;;;;;;16.52;4.68;;;12.40;99.90;;;;;;7373764;19;20518;-74
2023/03/23 10:03:47;;;;;;;18.70;4.57;;;12.30;99.90;;;;;;7371593;19;20510;-74
2023/03/23 10:06:17;;;;;;;22.05;6.38;;;12.60;99.90;;;;;;7369426;19;20023;-74
2023/03/23 10:08:53;;;;;;;16.35;4.20;;;12.70;99.90;;;;;;7370467;19;20038;-74
2023/03/23 10:11:24;;;;;;;19.17;4.63;;;12.50;99.90;;;;;;7372067;19;20482;-74
2023/03/23 10:14:14;;;;;;;16.83;4.57;;;12.30;99.90;;;;;;7365877;19;20045;-74
2023/03/23 10:16:58;;;;;;;16.85;4.60;;;12.20;99.90;;;;;;7371576;19;20010;-75
2023/03/23 10:19:33;;;;;;;19.52;5.75;;;12.10;99.90;;;;;;7368669;19;20518;-74
2023/03/23 10:22:06;;;;;;;15.98;4.05;;;12.10;99.90;;;;;;7364940;19;20022;-74
2023/03/23 10:25:15;;;;;;;15.52;4.40;;;12.00;99.90;;;;;;7368313;19;20482;-74
2023/03/23 10:27:59;;;;;;;15.43;3.95;;;12.00;99.90;;;;;;7368867;19;20022;-74
2023/03/23 10:30:35;;;;;;;14.15;3.65;;;12.00;99.90;;;;;;7367867;19;20807;-74
2023/03/23 10:33:10;;;;;;;17.00;4.00;;;12.00;99.90;;;;;;7368222;19;20022;-74
2023/03/23 10:35:47;;;;;;;14.10;4.03;;;12.10;99.90;;;;;;7368918;19;20037;-74
2023/03/23 10:38:25;;;;;;;13.43;3.58;;;12.20;99.90;;;;;;7366676;19;20562;-74
2023/03/23 10:41:00;;;;;;;15.25;3.85;;;12.90;99.90;;;;;;7366721;19;20041;-75
2023/03/23 10:43:26;;;;;;;13.65;3.40;;;13.90;99.90;;;;;;7370852;19;20030;-76
2023/03/23 10:46:10;;;;;;;17.08;3.70;;;14.90;99.90;;;;;;7367203;19;20379;-76
2023/03/23 10:48:38;;;;;;;14.80;4.45;;;15.80;99.90;;;;;;7371323;19;20490;-76
2023/03/23 10:51:10;;;;;;;16.63;3.60;;;16.50;99.90;;;;;;7368949;19;20038;-76
2023/03/23 10:53:50;;;;;;;9.07;2.78;;;16.70;99.90;;;;;;7365919;19;20530;-77
2023/03/23 10:56:25;;;;;;;8.98;2.50;;;17.00;99.90;;;;;;7372497;19;20387;-78
2023/03/23 10:58:53;;;;;;;8.63;2.78;;;17.30;99.90;;;;;;7367249;19;20053;-72
2023/03/23 11:01:29;;;;;;;10.20;2.75;;;17.50;99.90;;;;;;7374918;19;20721;-73
2023/03/23 11:04:00;;;;;;;8.73;2.30;;;17.80;99.90;;;;;;7370209;19;20029;-72
2023/03/23 11:06:30;;;;;;;11.15;3.05;;;17.70;99.90;;;;;;7376079;19;20021;-72
2023/03/23 11:09:01;;;;;;;9.38;2.95;;;17.70;99.90;;;;;;7373599;19;20032;-72
2023/03/23 11:11:36;;;;;;;10.25;2.60;;;17.70;99.90;;;;;;7373275;19;20018;-71
2023/03/23 11:14:30;;;;;;;10.93;2.95;;;17.50;99.90;;;;;;7368721;19;20094;-70
2023/03/23 11:17:00;;;;;;;8.30;2.22;;;16.60;99.90;;;;;;7372122;19;20026;-72
2023/03/23 11:19:32;;;;;;;12.10;2.92;;;16.80;99.90;;;;;;7376549;19;20403;-72
2023/03/23 11:22:21;;;;;;;9.88;2.65;;;17.70;99.90;;;;;;7367263;19;20378;-71
2023/03/23 11:24:52;;;;;;;16.75;3.17;;;17.10;99.90;;;;;;7369911;19;20017;-71
2023/03/23 11:27:19;;;;;;;11.50;3.35;;;16.30;99.90;;;;;;7369345;19;20029;-71
2023/03/23 11:29:59;;;;;;;13.13;2.85;;;15.90;99.90;;;;;;7369316;19;20383;-77
2023/03/23 11:32:30;;;;;;;10.20;3.65;;;16.50;99.90;;;;;;7368135;19;20018;-77
2023/03/23 11:35:04;;;;;;;7.93;2.55;;;16.50;99.90;;;;;;7369318;19;20289;-77
2023/03/23 11:37:39;;;;;;;11.40;3.17;;;17.30;99.90;;;;;;7377161;19;20015;-77
2023/03/23 11:40:09;;;;;;;9.88;2.83;;;17.90;99.90;;;;;;7377117;19;20026;-78
2023/03/23 11:42:41;;;;;;;10.60;3.13;;;17.50;99.90;;;;;;7376396;19;20011;-78
2023/03/23 11:45:34;;;;;;;10.45;3.03;;;17.20;99.90;;;;;;7375543;19;20026;-79
2023/03/23 11:48:15;;;;;;;9.23;2.85;;;16.50;99.90;;;;;;7376302;19;20571;-78
2023/03/23 11:50:47;;;;;;;10.23;3.08;;;17.20;99.90;;;;;;7374839;19;20087;-78
2023/03/23 11:53:39;;;;;;;12.07;3.75;;;17.70;99.90;;;;;;7380054;19;20025;-78
2023/03/23 11:56:08;;;;;;;12.13;2.97;;;17.60;99.90;;;;;;7387482;19;20019;-78
2023/03/23 11:58:36;;;;;;;10.48;2.58;;;17.30;99.90;;;;;;7383772;19;20345;-78
2023/03/23 12:01:34;;;;;;;9.23;2.38;;;16.50;99.90;;;;;;7374981;19;20022;-71
2023/03/23 12:04:49;;;;;;;10.52;2.88;;;15.80;99.90;;;;;;7364953;19;20023;-71
2023/03/23 12:07:33;;;;;;;8.95;2.60;;;15.60;99.90;;;;;;7376722;19;20019;-77
2023/03/23 12:10:25;;;;;;;11.93;3.20;;;15.30;99.90;;;;;;7388941;19;20374;-79
2023/03/23 12:12:59;;;;;;;12.07;3.15;;;15.00;99.90;;;;;;7385171;19;20079;-76
2023/03/23 12:15:58;;;;;;;11.25;2.67;;;15.00;99.90;;;;;;7383133;19;20110;-77
2023/03/23 12:18:59;;;;;;;13.02;2.90;;;15.00;99.90;;;;;;7387444;19;20057;-76
2023/03/23 12:21:36;;;;;;;9.50;2.90;;;15.00;99.90;;;;;;7392307;19;20021;-76
2023/03/23 12:24:34;;;;;;;13.98;3.28;;;14.70;99.90;;;;;;7389290;19;20655;-77
2023/03/23 12:27:10;;;;;;;14.30;4.03;;;14.50;99.90;;;;;;7388194;19;21247;-77
2023/03/23 12:29:45;;;;;;;10.02;3.20;;;14.50;99.90;;;;;;7391946;19;20489;-76
2023/03/23 12:32:33;;;;;;;11.02;3.45;;;14.50;99.90;;;;;;7382204;19;22459;-71
2023/03/23 12:35:11;;;;;;;15.60;3.95;;;14.40;99.90;;;;;;7383962;19;20052;-72
2023/03/23 12:37:46;;;;;;;13.57;3.40;;;14.00;99.90;;;;;;7391144;19;20417;-73
2023/03/23 12:40:36;;;;;;;13.40;3.50;;;13.80;99.90;;;;;;7388166;19;20617;-73
2023/03/23 12:43:38;;;;;;;13.88;3.88;;;13.50;99.90;;;;;;7383867;19;20796;-73
2023/03/23 12:46:28;;;;;;;13.15;3.85;;;13.60;99.90;;;;;;7385316;19;20018;-73
2023/03/23 12:49:07;;;;;;;13.50;3.60;;;13.70;99.90;;;;;;7384983;19;20028;-73
2023/03/23 12:51:44;;;;;;;13.15;3.72;;;13.70;99.90;;;;;;7386668;19;20084;-73
2023/03/23 12:54:33;;;;;;;14.68;3.28;;;14.00;99.90;;;;;;7383516;19;20031;-74
2023/03/23 12:57:01;;;;;;;14.93;3.10;;;15.40;99.90;;;;;;7384841;19;20015;-73
2023/03/23 12:59:37;;;;;;;14.02;3.50;;;15.70;99.90;;;;;;7385958;19;20018;-73
2023/03/23 13:02:32;;;;;;;11.80;3.30;;;15.60;99.90;;;;;;7386060;19;20346;-73
2023/03/23 13:05:24;;;;;;;12.18;3.13;;;15.10;99.90;;;;;;7382125;19;20061;-73
2023/03/23 13:07:56;;;;;;;13.32;3.33;;;14.80;99.90;;;;;;7381618;19;20626;-73
2023/03/23 13:10:27;;;;;;;8.75;2.47;;;16.00;99.90;;;;;;7385380;19;20011;-72
2023/03/23 13:12:57;;;;;;;10.05;3.33;;;16.40;99.90;;;;;;7395003;19;20082;-72
2023/03/23 13:15:46;;;;;;;12.80;3.00;;;16.10;99.90;;;;;;7381765;19;20386;-75
2023/03/23 13:18:16;;;;;;;16.05;3.58;;;15.80;99.90;;;;;;7380036;19;20037;-75
2023/03/23 13:20:51;;;;;;;11.27;3.15;;;15.70;99.90;;;;;;7381455;19;20014;-75
2023/03/23 13:23:51;;;;;;;11.50;2.67;;;16.20;99.90;;;;;;7381185;19;20021;-75